createdAt,value
2018-11-20T00:02:18.616Z,72.31
2018-11-20T00:04:47.790Z,72.17
2018-11-20T00:07:15.526Z,71.96
2018-11-20T00:09:44.428Z,72.07
2018-11-20T00:12:13.628Z,72.08
2018-11-20T00:14:41.944Z,72.28
2018-11-20T00:17:09.673Z,72.19
2018-11-20T00:19:38.568Z,72.00
2018-11-20T00:22:06.872Z,71.79
2018-11-20T00:24:35.187Z,71.13
2018-11-20T00:27:03.430Z,71.30
2018-11-20T00:29:31.806Z,71.24
2018-11-20T00:32:00.114Z,71.06
2018-11-20T00:34:28.428Z,70.87
2018-11-20T00:36:56.170Z,70.91
2018-11-20T00:39:25.055Z,70.70
2018-11-20T00:41:53.395Z,70.93
2018-11-20T00:44:21.697Z,70.88
2018-11-20T00:46:49.426Z,70.95
2018-11-20T00:49:18.327Z,70.92
2018-11-20T00:51:46.673Z,70.98
2018-11-20T00:54:14.962Z,71.16
2018-11-20T00:56:43.288Z,71.47
2018-11-20T00:59:11.600Z,71.73
2018-11-20T01:01:39.332Z,71.80
2018-11-20T01:04:07.651Z,71.60
2018-11-20T01:06:36.539Z,71.69
2018-11-20T01:09:04.265Z,71.65
2018-11-20T01:11:33.156Z,71.68
2018-11-20T01:14:00.895Z,71.73
2018-11-20T01:16:29.204Z,72.04
2018-11-20T01:18:58.126Z,71.95
2018-11-20T01:21:25.872Z,71.60
2018-11-20T01:23:54.192Z,71.40
2018-11-20T01:26:22.744Z,71.55
2018-11-20T01:28:51.415Z,71.55
2018-11-20T01:31:19.153Z,71.56
2018-11-20T01:33:48.040Z,71.50
2018-11-20T01:36:15.766Z,71.79
2018-11-20T01:38:44.076Z,71.96
2018-11-20T01:41:12.394Z,71.85
2018-11-20T01:43:40.725Z,71.87
2018-11-20T01:46:09.045Z,72.21
2018-11-20T01:48:37.943Z,72.27
2018-11-20T01:51:06.296Z,72.32
2018-11-20T01:53:34.570Z,72.24
2018-11-20T01:56:02.893Z,72.27
2018-11-20T01:58:31.197Z,72.10
2018-11-20T02:00:59.517Z,71.69
2018-11-20T02:03:27.824Z,71.48
2018-11-20T02:05:55.560Z,71.58
2018-11-20T02:08:23.867Z,71.11
2018-11-20T02:10:52.178Z,71.06
2018-11-20T02:13:32.681Z,71.27
2018-11-20T02:16:00.992Z,71.45
2018-11-20T02:18:29.297Z,71.55
2018-11-20T02:20:57.604Z,71.33
2018-11-20T02:23:26.486Z,71.37
2018-11-20T02:25:54.253Z,71.34
2018-11-20T02:28:22.567Z,70.93
2018-11-20T02:30:51.467Z,70.83
2018-11-20T02:33:19.208Z,70.94
2018-11-20T02:35:47.523Z,70.99
2018-11-20T02:38:15.834Z,71.03
2018-11-20T02:40:44.159Z,70.97
2018-11-20T02:43:12.484Z,70.80
2018-11-20T02:45:41.385Z,70.70
2018-11-20T02:48:09.698Z,70.93
2018-11-20T02:50:38.044Z,70.51
2018-11-20T02:53:06.360Z,70.48
2018-11-20T02:55:34.098Z,70.56
2018-11-20T02:58:02.988Z,70.56
2018-11-20T03:00:30.725Z,70.37
2018-11-20T03:02:59.622Z,70.19
2018-11-20T03:05:27.930Z,70.36
2018-11-20T03:07:56.236Z,70.21
2018-11-20T03:10:23.978Z,70.07
2018-11-20T03:12:52.285Z,70.15
2018-11-20T03:15:20.600Z,70.25
2018-11-20T03:17:48.920Z,70.11
2018-11-20T03:20:17.805Z,70.10
2018-11-20T03:22:46.420Z,70.15
2018-11-20T03:25:15.625Z,70.21
2018-11-20T03:27:43.379Z,70.28
2018-11-20T03:30:11.686Z,70.17
2018-11-20T03:32:40.572Z,70.13
2018-11-20T03:35:08.816Z,70.18
2018-11-20T03:37:36.629Z,70.17
2018-11-20T03:40:05.541Z,70.01
2018-11-20T03:42:33.861Z,69.81
2018-11-20T03:45:01.641Z,69.05
2018-11-20T03:47:29.946Z,68.11
2018-11-20T03:49:58.835Z,68.48
2018-11-20T03:52:26.566Z,68.66
2018-11-20T03:54:54.876Z,68.69
2018-11-20T03:57:23.773Z,68.53
2018-11-20T03:59:52.099Z,68.66
2018-11-20T04:02:20.412Z,68.71
2018-11-20T04:04:48.752Z,68.72
2018-11-20T04:07:17.061Z,69.06
2018-11-20T04:09:44.797Z,69.12
2018-11-20T04:12:13.684Z,68.65
2018-11-20T04:14:42.020Z,68.67
2018-11-20T04:17:09.757Z,68.52
2018-11-20T04:19:38.639Z,68.62
2018-11-20T04:22:06.388Z,68.62
2018-11-20T04:24:35.282Z,68.54
2018-11-20T04:27:03.616Z,67.92
2018-11-20T04:29:31.364Z,67.93
2018-11-20T04:31:59.701Z,68.21
2018-11-20T04:34:28.013Z,68.10
2018-11-20T04:36:56.900Z,68.00
2018-11-20T04:39:25.211Z,67.81
2018-11-20T04:41:53.328Z,68.23
2018-11-20T04:44:22.110Z,67.96
2018-11-20T04:46:50.432Z,67.72
2018-11-20T04:49:18.795Z,67.44
2018-11-20T04:51:47.105Z,67.60
2018-11-20T04:54:14.843Z,67.62
2018-11-20T04:56:43.736Z,67.37
2018-11-20T04:59:12.055Z,67.56
2018-11-20T05:01:39.781Z,67.68
2018-11-20T05:04:08.671Z,67.83
2018-11-20T05:06:37.033Z,67.99
2018-11-20T05:09:04.725Z,67.56
2018-11-20T05:11:33.033Z,67.14
2018-11-20T05:14:01.341Z,66.63
2018-11-20T05:16:29.657Z,66.29
2018-11-20T05:18:57.969Z,65.96
2018-11-20T05:21:26.875Z,66.30
2018-11-20T05:23:54.632Z,65.91
2018-11-20T05:26:23.750Z,65.80
2018-11-20T05:28:51.265Z,65.24
2018-11-20T05:31:20.161Z,65.63
2018-11-20T05:33:48.473Z,65.65
2018-11-20T05:36:16.212Z,65.86
2018-11-20T05:38:44.561Z,66.16
2018-11-20T05:41:12.867Z,65.41
2018-11-20T05:43:41.767Z,65.57
2018-11-20T05:46:10.089Z,65.49
2018-11-20T05:48:38.430Z,65.85
2018-11-20T05:51:06.877Z,66.25
2018-11-20T05:53:34.976Z,66.18
2018-11-20T05:56:02.921Z,66.06
2018-11-20T05:58:31.240Z,66.04
2018-11-20T06:01:00.131Z,65.92
2018-11-20T06:03:27.869Z,65.86
2018-11-20T06:05:56.793Z,65.91
2018-11-20T06:08:24.526Z,65.81
2018-11-20T06:10:53.427Z,65.76
2018-11-20T06:13:21.162Z,65.93
2018-11-20T06:15:50.054Z,66.00
2018-11-20T06:18:18.370Z,66.15
2018-11-20T06:20:46.099Z,66.13
2018-11-20T06:23:15.012Z,66.43
2018-11-20T06:25:42.759Z,66.05
2018-11-20T06:28:11.700Z,65.91
2018-11-20T06:30:39.432Z,65.79
2018-11-20T06:33:08.358Z,65.93
2018-11-20T06:35:36.680Z,65.70
2018-11-20T06:38:04.995Z,65.62
2018-11-20T06:40:32.723Z,65.67
2018-11-20T06:43:01.037Z,65.59
2018-11-20T06:45:29.995Z,65.73
2018-11-20T06:47:58.653Z,65.58
2018-11-20T06:50:26.373Z,65.61
2018-11-20T06:52:55.315Z,65.18
2018-11-20T06:55:23.627Z,65.56
2018-11-20T06:57:51.362Z,65.57
2018-11-20T07:00:20.248Z,65.73
2018-11-20T07:02:48.579Z,65.64
2018-11-20T07:05:16.915Z,65.59
2018-11-20T07:07:45.432Z,65.43
2018-11-20T07:10:13.547Z,65.55
2018-11-20T07:12:41.863Z,65.51
2018-11-20T07:15:10.190Z,65.74
2018-11-20T07:17:38.507Z,65.64
2018-11-20T07:20:06.842Z,65.06
2018-11-20T07:22:34.643Z,65.07
2018-11-20T07:25:03.468Z,65.45
2018-11-20T07:27:32.028Z,65.28
2018-11-20T07:29:59.825Z,65.31
2018-11-20T07:32:28.681Z,64.99
2018-11-20T07:34:57.067Z,65.18
2018-11-20T07:37:25.579Z,64.95
2018-11-20T07:39:53.670Z,64.56
2018-11-20T07:42:21.386Z,64.21
2018-11-20T07:44:49.713Z,63.74
2018-11-20T07:47:18.616Z,63.07
2018-11-20T07:49:46.969Z,62.96
2018-11-20T07:52:14.705Z,62.51
2018-11-20T07:54:43.631Z,62.94
2018-11-20T07:57:12.220Z,63.22
2018-11-20T07:59:39.954Z,63.45
2018-11-20T08:02:08.928Z,63.68
2018-11-20T08:04:37.203Z,63.73
2018-11-20T08:07:05.066Z,63.88
2018-11-20T08:09:33.457Z,64.25
2018-11-20T08:12:02.335Z,64.43
2018-11-20T08:14:30.956Z,64.47
2018-11-20T08:16:59.283Z,64.33
2018-11-20T08:19:27.596Z,62.92
2018-11-20T08:21:55.322Z,63.43
2018-11-20T08:24:24.217Z,63.38
2018-11-20T08:26:52.535Z,63.60
2018-11-20T08:29:20.273Z,63.63
2018-11-20T08:31:49.178Z,63.63
2018-11-20T08:34:17.613Z,63.75
2018-11-20T08:36:45.818Z,64.01
2018-11-20T08:39:14.142Z,64.00
2018-11-20T08:41:41.870Z,64.35
2018-11-20T08:44:10.200Z,64.24
2018-11-20T08:46:39.502Z,64.08
2018-11-20T08:49:07.852Z,64.12
2018-11-20T08:51:36.269Z,63.74
2018-11-20T08:54:04.581Z,63.19
2018-11-20T08:56:32.938Z,62.82
2018-11-20T08:59:00.751Z,62.39
2018-11-20T09:01:29.866Z,62.85
2018-11-20T09:03:57.599Z,63.14
2018-11-20T09:06:25.922Z,63.36
2018-11-20T09:08:54.812Z,62.93
2018-11-20T09:11:23.144Z,62.95
2018-11-20T09:13:51.465Z,63.35
2018-11-20T09:16:19.794Z,63.61
2018-11-20T09:18:48.126Z,63.09
2018-11-20T09:21:15.921Z,61.71
2018-11-20T09:23:44.205Z,61.74
2018-11-20T09:26:13.111Z,62.24
2018-11-20T09:28:41.464Z,61.67
2018-11-20T09:31:09.801Z,61.77
2018-11-20T09:33:38.121Z,61.71
2018-11-20T09:36:06.468Z,61.97
2018-11-20T09:38:34.202Z,62.11
2018-11-20T09:41:03.102Z,62.19
2018-11-20T09:43:31.420Z,62.09
2018-11-20T09:45:59.736Z,60.80
2018-11-20T09:48:28.052Z,61.37
2018-11-20T09:50:56.380Z,61.67
2018-11-20T09:53:24.730Z,61.61
2018-11-20T09:55:53.042Z,62.01
2018-11-20T09:58:20.805Z,61.73
2018-11-20T10:00:49.121Z,60.64
2018-11-20T10:03:18.041Z,60.91
2018-11-20T10:05:46.372Z,60.61
2018-11-20T10:08:14.699Z,60.90
2018-11-20T10:10:42.446Z,59.45
2018-11-20T10:13:11.344Z,59.11
2018-11-20T10:15:39.080Z,59.34
2018-11-20T10:18:07.410Z,59.36
2018-11-20T10:20:36.298Z,59.47
2018-11-20T10:23:04.631Z,59.59
2018-11-20T10:25:33.038Z,59.03
2018-11-20T10:28:00.717Z,58.94
2018-11-20T10:30:29.019Z,58.70
2018-11-20T10:32:57.344Z,57.99
2018-11-20T10:35:26.306Z,58.43
2018-11-20T10:37:54.601Z,57.69
2018-11-20T10:40:22.865Z,57.24
2018-11-20T10:42:51.473Z,57.29
2018-11-20T10:45:19.643Z,58.56
2018-11-20T10:47:47.905Z,58.80
2018-11-20T10:50:16.223Z,60.04
2018-11-20T10:52:44.637Z,60.27
2018-11-20T10:55:13.108Z,60.55
2018-11-20T10:57:41.231Z,60.89
2018-11-20T11:00:10.079Z,60.99
2018-11-20T11:02:39.097Z,61.24
2018-11-20T11:05:07.826Z,61.39
2018-11-20T11:07:36.189Z,61.54
2018-11-20T11:10:04.421Z,61.35
2018-11-20T11:12:32.805Z,61.41
2018-11-20T11:15:00.491Z,61.58
2018-11-20T11:17:28.809Z,61.40
2018-11-20T11:19:57.730Z,61.56
2018-11-20T11:22:26.038Z,61.13
2018-11-20T11:24:53.797Z,60.11
2018-11-20T11:27:22.140Z,59.74
2018-11-20T11:29:51.008Z,60.01
2018-11-20T11:32:18.769Z,59.57
2018-11-20T11:34:47.854Z,58.48
2018-11-20T11:37:15.569Z,57.66
2018-11-20T11:39:44.477Z,57.95
2018-11-20T11:42:12.793Z,57.95
2018-11-20T11:44:40.551Z,58.63
2018-11-20T11:47:08.880Z,59.04
2018-11-20T11:49:37.772Z,58.77
2018-11-20T11:52:06.105Z,58.70
2018-11-20T11:54:34.420Z,58.40
2018-11-20T11:57:02.737Z,58.46
2018-11-20T11:59:31.064Z,58.37
2018-11-20T12:04:28.328Z,58.62
2018-11-20T12:06:56.679Z,59.18
2018-11-20T12:09:24.436Z,59.50
2018-11-20T12:11:52.721Z,59.54
2018-11-20T12:14:21.619Z,59.64
2018-11-20T12:16:49.377Z,59.82
2018-11-20T12:19:18.280Z,59.77
2018-11-20T12:21:46.817Z,60.31
2018-11-20T12:24:14.916Z,60.47
2018-11-20T12:26:43.534Z,60.65
2018-11-20T12:29:11.265Z,60.60
2018-11-20T12:31:40.176Z,60.61
2018-11-20T12:34:07.920Z,60.44
2018-11-20T12:36:36.826Z,60.38
2018-11-20T12:39:05.156Z,60.84
2018-11-20T12:41:33.458Z,61.38
2018-11-20T12:44:05.811Z,61.47
2018-11-20T12:46:30.091Z,61.27
2018-11-20T12:48:58.746Z,61.38
2018-11-20T12:51:27.360Z,61.96
2018-11-20T12:53:55.396Z,61.69
2018-11-20T12:56:23.410Z,61.74
2018-11-20T12:58:53.998Z,61.25
2018-11-20T13:01:20.636Z,60.98
2018-11-20T13:03:50.016Z,60.93
2018-11-20T13:06:17.580Z,61.27
2018-11-20T13:08:45.904Z,61.45
2018-11-20T13:11:14.228Z,61.45
2018-11-20T13:13:42.573Z,61.73
2018-11-20T13:16:10.913Z,61.93
2018-11-20T13:18:39.264Z,62.29
2018-11-20T13:21:10.928Z,62.63
2018-11-20T13:23:35.897Z,62.35
2018-11-20T13:26:04.864Z,61.98
2018-11-20T13:28:33.168Z,61.79
2018-11-20T13:31:01.722Z,61.51
2018-11-20T13:33:29.850Z,61.73
2018-11-20T13:35:57.627Z,61.87
2018-11-20T13:38:26.644Z,62.20
2018-11-20T13:41:05.580Z,62.53
2018-11-20T13:43:34.154Z,62.66
2018-11-20T13:46:02.449Z,62.89
2018-11-20T13:48:30.202Z,62.60
2018-11-20T13:50:59.141Z,63.00
2018-11-20T13:53:27.460Z,63.26
2018-11-20T13:55:56.010Z,63.36
2018-11-20T13:58:23.549Z,63.48
2018-11-20T14:00:52.452Z,63.48
2018-11-20T14:03:21.580Z,63.58
2018-11-20T14:05:50.191Z,63.64
2018-11-20T14:08:18.444Z,63.88
2018-11-20T14:10:47.332Z,64.12
2018-11-20T14:13:15.142Z,64.48
2018-11-20T14:15:43.486Z,64.64
2018-11-20T14:18:11.788Z,65.10
2018-11-20T14:20:40.924Z,65.13
2018-11-20T14:23:09.301Z,64.84
2018-11-20T14:25:39.973Z,64.58
2018-11-20T14:28:06.198Z,64.34
2018-11-20T14:30:33.948Z,64.02
2018-11-20T14:33:02.851Z,64.17
2018-11-20T14:35:30.639Z,64.36
2018-11-20T14:37:58.971Z,64.24
2018-11-20T14:40:27.303Z,64.22
2018-11-20T14:42:56.207Z,64.47
2018-11-20T14:45:24.752Z,64.44
2018-11-20T14:47:52.849Z,64.31
2018-11-20T14:50:21.164Z,64.60
2018-11-20T14:52:49.497Z,64.97
2018-11-20T14:55:17.818Z,65.39
2018-11-20T14:57:46.411Z,65.58
2018-11-20T15:00:14.756Z,65.78
2018-11-20T15:02:42.485Z,66.02
2018-11-20T15:05:11.404Z,65.66
2018-11-20T15:07:41.130Z,65.98
2018-11-20T15:10:09.456Z,66.17
2018-11-20T15:12:37.834Z,66.33
2018-11-20T15:15:06.682Z,66.26
2018-11-20T15:17:35.013Z,65.94
2018-11-20T15:20:04.084Z,66.29
2018-11-20T15:22:32.501Z,66.28
2018-11-20T15:25:00.826Z,66.23
2018-11-20T15:27:28.604Z,66.31
2018-11-20T15:30:03.262Z,66.22
2018-11-20T15:32:30.948Z,66.08
2018-11-20T15:35:01.115Z,65.97
2018-11-20T15:37:29.599Z,65.62
2018-11-20T15:39:57.961Z,65.76
2018-11-20T15:42:26.333Z,65.83
2018-11-20T15:44:54.422Z,66.06
2018-11-20T15:47:23.341Z,66.15
2018-11-20T15:49:51.104Z,65.99
2018-11-20T15:52:20.059Z,65.99
2018-11-20T15:54:48.393Z,65.84
2018-11-20T15:57:17.318Z,65.33
2018-11-20T15:59:45.481Z,65.34
2018-11-20T16:02:14.604Z,65.32
2018-11-20T16:04:43.252Z,65.09
2018-11-20T16:07:11.969Z,64.93
2018-11-20T16:09:40.548Z,65.36
2018-11-20T16:12:08.304Z,65.40
2018-11-20T16:14:37.233Z,65.57
2018-11-20T16:17:16.430Z,65.09
2018-11-20T16:19:33.918Z,65.29
2018-11-20T16:22:02.631Z,64.94
2018-11-20T16:24:30.951Z,64.25
2018-11-20T16:26:59.348Z,64.14
2018-11-20T16:29:28.090Z,64.21
2018-11-20T16:31:56.434Z,64.05
2018-11-20T16:34:24.756Z,63.94
2018-11-20T16:36:53.074Z,64.14
2018-11-20T16:39:22.414Z,63.90
2018-11-20T16:41:50.150Z,64.12
2018-11-20T16:44:18.485Z,63.77
2018-11-20T16:46:46.819Z,63.48
2018-11-20T16:49:15.181Z,63.47
2018-11-20T16:51:43.540Z,63.32
2018-11-20T16:54:11.856Z,63.17
2018-11-20T16:56:40.195Z,62.83
2018-11-20T16:59:08.528Z,62.84
2018-11-20T17:01:37.136Z,62.83
2018-11-20T17:04:05.837Z,62.92
2018-11-20T17:06:34.112Z,62.42
2018-11-20T17:09:02.458Z,62.37
2018-11-20T17:11:30.807Z,62.37
2018-11-20T17:13:59.354Z,62.49
2018-11-20T17:16:27.447Z,62.37
2018-11-20T17:18:55.824Z,62.36
2018-11-20T17:21:23.926Z,62.43
2018-11-20T17:23:52.826Z,62.55
2018-11-20T17:26:21.901Z,62.59
2018-11-20T17:28:49.503Z,62.24
2018-11-20T17:31:17.870Z,62.41
2018-11-20T17:33:46.197Z,62.73
2018-11-20T17:36:13.956Z,62.78
2018-11-20T17:38:42.401Z,62.82
2018-11-20T17:41:10.718Z,62.90
2018-11-20T17:43:39.621Z,63.00
2018-11-20T17:46:07.999Z,63.10
2018-11-20T17:48:36.594Z,63.22
2018-11-20T17:51:04.868Z,63.29
2018-11-20T17:53:33.191Z,63.46
2018-11-20T17:56:02.017Z,63.71
2018-11-20T17:58:30.741Z,63.41
2018-11-20T18:00:58.877Z,63.02
2018-11-20T18:03:28.497Z,63.26
2018-11-20T18:05:57.070Z,63.49
2018-11-20T18:08:25.226Z,63.53
2018-11-20T18:10:53.666Z,63.61
2018-11-20T18:13:22.056Z,63.84
2018-11-20T18:15:50.462Z,64.03
2018-11-20T18:18:19.071Z,64.60
2018-11-20T18:20:47.646Z,64.83
2018-11-20T18:23:16.229Z,64.79
2018-11-20T18:25:44.338Z,64.79
2018-11-20T18:28:12.776Z,64.51
2018-11-20T18:30:41.102Z,64.54
2018-11-20T18:33:08.847Z,64.48
2018-11-20T18:35:38.069Z,64.71
2018-11-20T18:38:06.671Z,64.82
2018-11-20T18:40:35.352Z,64.54
2018-11-20T18:43:03.709Z,64.64
2018-11-20T18:45:32.081Z,64.52
2018-11-20T18:48:00.444Z,64.44
2018-11-20T18:50:28.403Z,64.57
2018-11-20T18:52:57.338Z,64.40
2018-11-20T18:55:25.690Z,64.54
2018-11-20T18:57:54.028Z,64.39
2018-11-20T19:00:22.409Z,64.51
2018-11-20T19:02:50.730Z,64.50
2018-11-20T19:05:20.009Z,64.51
2018-11-20T19:07:48.560Z,64.40
2018-11-20T19:10:16.898Z,64.38
2018-11-20T19:12:45.011Z,64.57
2018-11-20T19:15:14.094Z,64.24
2018-11-20T19:17:42.406Z,64.24
2018-11-20T19:20:10.981Z,64.24
2018-11-20T19:22:39.767Z,64.45
2018-11-20T19:25:07.862Z,64.31
2018-11-20T19:27:36.220Z,64.36
2018-11-20T19:30:04.618Z,64.52
2018-11-20T19:32:32.893Z,64.64
2018-11-20T19:35:01.469Z,65.07
2018-11-20T19:37:30.089Z,65.22
2018-11-20T19:39:58.165Z,65.26
2018-11-20T19:42:26.513Z,65.30
2018-11-20T19:44:54.253Z,65.20
2018-11-20T19:47:23.209Z,65.12
2018-11-20T19:49:51.548Z,64.99
2018-11-20T19:52:19.866Z,64.87
2018-11-20T19:54:48.318Z,65.17
2018-11-20T19:57:16.665Z,65.27
2018-11-20T19:59:45.018Z,65.34
2018-11-20T20:02:13.604Z,65.03
2018-11-20T20:04:41.341Z,65.23
2018-11-20T20:07:09.661Z,65.27
2018-11-20T20:09:38.580Z,65.22
2018-11-20T20:12:06.889Z,65.09
2018-11-20T20:14:35.234Z,64.72
2018-11-20T20:17:03.017Z,64.48
2018-11-20T20:19:31.986Z,64.62
2018-11-20T20:21:59.757Z,64.46
2018-11-20T20:24:29.786Z,64.45
2018-11-20T20:26:57.381Z,64.45
2018-11-20T20:29:25.526Z,64.41
2018-11-20T20:31:53.854Z,64.00
2018-11-20T20:34:21.624Z,64.37
2018-11-20T20:36:50.570Z,64.15
2018-11-20T20:39:18.917Z,63.92
2018-11-20T20:41:47.522Z,63.85
2018-11-20T20:44:16.205Z,64.05
2018-11-20T20:46:44.591Z,63.94
2018-11-20T20:49:13.265Z,64.01
2018-11-20T20:51:41.592Z,64.27
2018-11-20T20:54:12.543Z,64.37
2018-11-20T20:56:38.365Z,64.40
2018-11-20T20:59:07.001Z,64.63
2018-11-20T21:01:35.636Z,64.79
2018-11-20T21:04:03.802Z,64.80
2018-11-20T21:06:32.143Z,64.70
2018-11-20T21:09:00.171Z,64.53
2018-11-20T21:11:28.821Z,64.33
2018-11-20T21:13:57.144Z,64.04
2018-11-20T21:16:25.862Z,63.86
2018-11-20T21:18:54.267Z,64.00
2018-11-20T21:21:22.592Z,64.31
2018-11-20T21:23:50.934Z,64.37
2018-11-20T21:26:18.688Z,64.27
2018-11-20T21:28:47.596Z,63.92
2018-11-20T21:31:15.921Z,64.20
2018-11-20T21:33:44.481Z,64.17
2018-11-20T21:36:12.605Z,64.01
2018-11-20T21:38:41.016Z,63.85
2018-11-20T21:41:09.365Z,63.73
2018-11-20T21:43:37.126Z,63.79
2018-11-20T21:46:05.474Z,63.74
2018-11-20T21:48:34.411Z,63.65
2018-11-20T21:51:02.742Z,63.63
2018-11-20T21:53:31.062Z,63.38
2018-11-20T21:55:58.902Z,63.71
2018-11-20T21:58:27.307Z,64.03
2018-11-20T22:00:56.384Z,64.10
2018-11-20T22:03:24.778Z,64.08
2018-11-20T22:05:53.467Z,63.95
2018-11-20T22:08:24.908Z,63.80
2018-11-20T22:10:50.428Z,63.92
2018-11-20T22:13:18.206Z,63.81
2018-11-20T22:15:47.109Z,63.60
2018-11-20T22:18:15.428Z,63.51
2018-11-20T22:20:43.787Z,63.54
2018-11-20T22:23:12.126Z,63.36
2018-11-20T22:25:40.469Z,63.36
2018-11-20T22:28:08.990Z,63.36
2018-11-20T22:30:37.321Z,63.45
2018-11-20T22:33:05.958Z,63.65
2018-11-20T22:35:34.268Z,63.63
2018-11-20T22:38:02.003Z,63.66
2018-11-20T22:40:30.321Z,63.57
2018-11-20T22:42:59.953Z,63.62
2018-11-20T22:45:28.277Z,63.47
2018-11-20T22:47:56.580Z,63.59
2018-11-20T22:50:24.897Z,63.57
2018-11-20T22:52:53.212Z,63.76
2018-11-20T22:55:21.552Z,63.85
2018-11-20T22:57:49.297Z,63.88
2018-11-20T23:00:18.452Z,63.76
2018-11-20T23:02:46.773Z,63.76
2018-11-20T23:05:13.970Z,63.95
2018-11-20T23:07:42.862Z,63.64
2018-11-20T23:10:11.196Z,63.49
2018-11-20T23:12:38.946Z,63.64
2018-11-20T23:15:07.883Z,63.62
2018-11-20T23:17:36.192Z,63.54
2018-11-20T23:20:03.952Z,63.26
2018-11-20T23:22:32.311Z,63.21
2018-11-20T23:25:01.216Z,63.38
2018-11-20T23:27:30.607Z,63.60
2018-11-20T23:29:57.561Z,63.47
2018-11-20T23:32:26.473Z,63.66
2018-11-20T23:34:54.794Z,63.59
2018-11-20T23:37:22.546Z,63.60
2018-11-20T23:39:51.447Z,63.82
2018-11-20T23:42:23.853Z,63.78
2018-11-20T23:44:48.125Z,63.99
2018-11-20T23:47:15.878Z,63.96
2018-11-20T23:49:44.168Z,64.06
2018-11-20T23:52:13.059Z,64.17
2018-11-20T23:54:40.815Z,64.04
2018-11-20T23:57:09.709Z,64.21
2018-11-20T23:59:37.440Z,64.29
